Blackstone River @ Uxbridge, Ma

Blackstone River, Rt 122 near Uxbridge
 Total Drainage Area: 244 sq. miles 
 Drainage Area Controlled by Corps Dams: 28 sq. miles (11%) 
 Warning Flow/Stage: 2,715 cfs / 13.0 feet 
 Flood Flow/Stage: 5,710 cfs / 17.5 feet 
Date Time
(Eastern)
Stage
(ft)
Flow
(cfs)
CSM
(cfs / sq. mi.)
Jan-31 02:00 pm 9.84 1,026 4.2
Jan-31 01:00 pm 9.86 1,033 4.2
Jan-31 12:00 pm 9.87 1,037 4.3
Jan-31 11:00 am 9.88 1,040 4.3
Jan-31 10:00 am 9.90 1,047 4.3
Jan-31 09:00 am 9.91 1,051 4.3
Jan-31 08:00 am 9.92 1,055 4.3
Jan-31 07:00 am 9.94 1,062 4.4
Jan-31 06:00 am 9.95 1,065 4.4
Jan-31 05:00 am 9.96 1,069 4.4
Jan-31 04:00 am 9.97 1,072 4.4
Jan-31 03:00 am 9.98 1,076 4.4
Jan-31 02:00 am 9.99 1,079 4.4
Jan-31 01:00 am 10.00 1,083 4.4
Jan-31 12:00 am 10.01 1,087 4.5
Jan-30 11:00 pm 10.04 1,097 4.5
Jan-30 10:00 pm 10.05 1,101 4.5
Jan-30 09:00 pm 10.05 1,101 4.5
Jan-30 08:00 pm 10.07 1,108 4.5
Jan-30 07:00 pm 10.07 1,108 4.5
Jan-30 06:00 pm 10.08 1,112 4.6
Jan-30 05:00 pm 10.08 1,112 4.6
Jan-30 04:00 pm 10.10 1,119 4.6
Jan-30 03:00 pm 10.13 1,130 4.6
Jan-30 02:00 pm 10.14 1,133 4.7
Report Generated January 31, 2023 03:05 pm